Terminal Aerodrome Forecast
Issued by NWS Greer, SC

Home | Current Version | Previous Version | Text Only | Print | Product List | Glossary On
Versions: 1 2 3 4 5 6 7 8 9 10 11 12 13 14 15 16 17 18 19 20 21 22 23 24 25 26 27
000
FTUS42 KGSP 050723 AAB
TAFGSP
TAF AMD
KGSP 050723Z 0507/0606 23007KT P6SM VCSH SCT009 BKN015 BKN250
     FM051200 22009KT P6SM VCSH BKN040 BKN120
     FM051600 22010G17KT P6SM -SHRA VCTS SCT040CB BKN100
     FM052100 22012G19KT P6SM VCSH SCT040 BKN080 PROB30 0521/0524
      4SM TSRA BKN040CB
     FM060000 22006KT P6SM BKN090=

USA.gov is the U.S. government's official web portal to all federal, state and local government web resources and services.